sensor_id;sensor_type;location;lat;lon;timestamp;pressure;altitude;pressure_sealevel;temperature;humidity
19761;BME280;10039;42.632;23.408;2022-11-12T00:02:25;96343.59;;;11.40;71.61
19761;BME280;10039;42.632;23.408;2022-11-12T00:04:51;96310.00;;;11.12;71.39
19761;BME280;10039;42.632;23.408;2022-11-12T00:07:19;96302.00;;;11.15;70.93
19761;BME280;10039;42.632;23.408;2022-11-12T00:09:44;96323.00;;;11.41;71.23
19761;BME280;10039;42.632;23.408;2022-11-12T00:12:10;96334.06;;;11.43;71.34
19761;BME280;10039;42.632;23.408;2022-11-12T00:14:35;96310.00;;;11.18;71.36
19761;BME280;10039;42.632;23.408;2022-11-12T00:17:01;96319.19;;;11.35;71.32
19761;BME280;10039;42.632;23.408;2022-11-12T00:19:26;96337.91;;;11.42;71.72
19761;BME280;10039;42.632;23.408;2022-11-12T00:21:52;96311.16;;;11.17;71.49
19761;BME280;10039;42.632;23.408;2022-11-12T00:24:17;96318.03;;;11.29;71.28
19761;BME280;10039;42.632;23.408;2022-11-12T00:26:45;96300.09;;;11.15;71.50
19761;BME280;10039;42.632;23.408;2022-11-12T00:29:11;96327.19;;;11.31;71.50
19761;BME280;10039;42.632;23.408;2022-11-12T00:31:36;96343.22;;;11.45;70.94
19761;BME280;10039;42.632;23.408;2022-11-12T00:34:02;96348.19;;;11.43;71.41
19761;BME280;10039;42.632;23.408;2022-11-12T00:36:27;96322.63;;;11.28;71.42
19761;BME280;10039;42.632;23.408;2022-11-12T00:38:53;96311.91;;;11.21;71.44
19761;BME280;10039;42.632;23.408;2022-11-12T00:41:19;96345.13;;;11.38;71.64
19761;BME280;10039;42.632;23.408;2022-11-12T00:43:44;96327.94;;;11.35;71.72
19761;BME280;10039;42.632;23.408;2022-11-12T00:46:10;96319.19;;;11.24;71.33
19761;BME280;10039;42.632;23.408;2022-11-12T00:48:36;96318.00;;;11.22;71.78
19761;BME280;10039;42.632;23.408;2022-11-12T00:51:03;96341.69;;;11.34;71.65
19761;BME280;10039;42.632;23.408;2022-11-12T00:53:29;96313.81;;;11.21;71.91
19761;BME280;10039;42.632;23.408;2022-11-12T00:56:03;96315.72;;;11.13;71.96
19761;BME280;10039;42.632;23.408;2022-11-12T00:58:30;96302.75;;;11.05;72.22
19761;BME280;10039;42.632;23.408;2022-11-12T01:00:56;96334.06;;;11.36;72.26
19761;BME280;10039;42.632;23.408;2022-11-12T01:03:22;96291.28;;;11.12;71.88
19761;BME280;10039;42.632;23.408;2022-11-12T01:05:48;96300.84;;;11.23;72.57
19761;BME280;10039;42.632;23.408;2022-11-12T01:08:14;96306.19;;;11.40;72.06
19761;BME280;10039;42.632;23.408;2022-11-12T01:10:39;96300.44;;;11.31;72.65
19761;BME280;10039;42.632;23.408;2022-11-12T01:13:05;96273.34;;;11.09;72.79
19761;BME280;10039;42.632;23.408;2022-11-12T01:15:31;96311.16;;;11.21;73.33
19761;BME280;10039;42.632;23.408;2022-11-12T01:17:57;96324.91;;;11.19;73.59
19761;BME280;10039;42.632;23.408;2022-11-12T01:20:25;96316.50;;;11.21;73.37
19761;BME280;10039;42.632;23.408;2022-11-12T01:22:50;96266.47;;;10.87;73.17
19761;BME280;10039;42.632;23.408;2022-11-12T01:25:16;96314.22;;;11.19;73.43
19761;BME280;10039;42.632;23.408;2022-11-12T01:27:41;96321.03;;;11.00;74.03
19761;BME280;10039;42.632;23.408;2022-11-12T01:30:07;96289.75;;;10.93;73.89
19761;BME280;10039;42.632;23.408;2022-11-12T01:32:53;96304.28;;;11.06;73.55
19761;BME280;10039;42.632;23.408;2022-11-12T01:35:18;96287.50;;;10.99;73.18
19761;BME280;10039;42.632;23.408;2022-11-12T01:37:44;96312.69;;;11.18;73.56
19761;BME280;10039;42.632;23.408;2022-11-12T01:40:09;96309.22;;;11.18;73.47
19761;BME280;10039;42.632;23.408;2022-11-12T01:42:38;96252.34;;;10.86;73.01
19761;BME280;10039;42.632;23.408;2022-11-12T01:45:12;96294.72;;;11.19;72.94
19761;BME280;10039;42.632;23.408;2022-11-12T01:47:41;96291.31;;;11.18;72.91
19761;BME280;10039;42.632;23.408;2022-11-12T01:52:46;96299.31;;;11.12;73.18
19761;BME280;10039;42.632;23.408;2022-11-12T01:55:20;96306.56;;;11.14;73.51
19761;BME280;10039;42.632;23.408;2022-11-12T01:57:50;96269.16;;;10.90;73.13
19761;BME280;10039;42.632;23.408;2022-11-12T02:00:18;96261.53;;;10.96;72.45
19761;BME280;10039;42.632;23.408;2022-11-12T02:02:50;96247.78;;;10.87;72.87
19761;BME280;10039;42.632;23.408;2022-11-12T02:05:17;96255.03;;;10.83;72.98
19761;BME280;10039;42.632;23.408;2022-11-12T02:07:44;96261.50;;;10.82;72.56
19761;BME280;10039;42.632;23.408;2022-11-12T02:10:11;96296.66;;;11.08;72.79
19761;BME280;10039;42.632;23.408;2022-11-12T02:12:36;96300.84;;;11.13;72.54
19761;BME280;10039;42.632;23.408;2022-11-12T02:15:24;96295.88;;;11.04;72.82
19761;BME280;10039;42.632;23.408;2022-11-12T02:17:50;96245.47;;;10.68;72.96
19761;BME280;10039;42.632;23.408;2022-11-12T02:20:16;96295.50;;;10.92;72.68
19761;BME280;10039;42.632;23.408;2022-11-12T02:22:41;96289.78;;;10.97;72.68
19761;BME280;10039;42.632;23.408;2022-11-12T02:25:15;96276.78;;;10.85;72.72
19761;BME280;10039;42.632;23.408;2022-11-12T02:27:42;96304.28;;;11.06;72.68
19761;BME280;10039;42.632;23.408;2022-11-12T02:30:08;96261.88;;;10.77;72.35
19761;BME280;10039;42.632;23.408;2022-11-12T02:32:35;96292.03;;;10.88;72.45
19761;BME280;10039;42.632;23.408;2022-11-12T02:35:01;96309.59;;;11.03;72.75
19761;BME280;10039;42.632;23.408;2022-11-12T02:37:26;96306.94;;;10.99;73.12
19761;BME280;10039;42.632;23.408;2022-11-12T02:39:52;96301.22;;;10.94;73.08
19761;BME280;10039;42.632;23.408;2022-11-12T02:42:17;96306.16;;;10.95;73.15
19761;BME280;10039;42.632;23.408;2022-11-12T02:44:43;96287.44;;;10.88;72.90
19761;BME280;10039;42.632;23.408;2022-11-12T02:47:10;96304.25;;;11.03;72.56
19761;BME280;10039;42.632;23.408;2022-11-12T02:49:36;96271.41;;;10.78;72.69
19761;BME280;10039;42.632;23.408;2022-11-12T02:52:02;96248.53;;;10.70;73.16
19761;BME280;10039;42.632;23.408;2022-11-12T02:54:27;96285.94;;;10.84;72.93
19761;BME280;10039;42.632;23.408;2022-11-12T02:56:56;96294.31;;;10.79;73.44
19761;BME280;10039;42.632;23.408;2022-11-12T02:59:22;96291.66;;;10.82;73.59
19761;BME280;10039;42.632;23.408;2022-11-12T03:01:47;96287.81;;;10.69;73.74
19761;BME280;10039;42.632;23.408;2022-11-12T03:04:13;96258.41;;;10.48;74.25
19761;BME280;10039;42.632;23.408;2022-11-12T03:06:38;96252.31;;;10.48;73.63
19761;BME280;10039;42.632;23.408;2022-11-12T03:09:04;96293.16;;;10.73;73.66
19761;BME280;10039;42.632;23.408;2022-11-12T03:11:30;96296.97;;;10.72;73.04
19761;BME280;10039;42.632;23.408;2022-11-12T03:13:55;96295.44;;;10.67;73.46
19761;BME280;10039;42.632;23.408;2022-11-12T03:16:21;96293.16;;;10.66;73.25
19761;BME280;10039;42.632;23.408;2022-11-12T03:18:46;96255.34;;;10.43;73.50
19761;BME280;10039;42.632;23.408;2022-11-12T03:21:12;96297.72;;;10.62;72.95
19761;BME280;10039;42.632;23.408;2022-11-12T03:23:37;96279.00;;;10.58;73.01
19761;BME280;10039;42.632;23.408;2022-11-12T03:26:03;96301.16;;;10.66;72.92
19761;BME280;10039;42.632;23.408;2022-11-12T03:28:30;96250.38;;;10.38;72.79
19761;BME280;10039;42.632;23.408;2022-11-12T03:30:57;96299.63;;;10.72;73.06
19761;BME280;10039;42.632;23.408;2022-11-12T03:33:23;96290.47;;;10.59;72.20
19761;BME280;10039;42.632;23.408;2022-11-12T03:35:49;96288.53;;;10.52;72.40
19761;BME280;10039;42.632;23.408;2022-11-12T03:38:17;96245.75;;;10.21;71.96
19761;BME280;10039;42.632;23.408;2022-11-12T03:40:42;96289.66;;;10.48;71.69
19761;BME280;10039;42.632;23.408;2022-11-12T03:43:08;96292.72;;;10.50;71.98
19761;BME280;10039;42.632;23.408;2022-11-12T03:45:34;96276.66;;;10.36;71.82
19761;BME280;10039;42.632;23.408;2022-11-12T03:47:59;96251.44;;;10.16;71.70
19761;BME280;10039;42.632;23.408;2022-11-12T03:50:27;96290.38;;;10.38;71.84
19761;BME280;10039;42.632;23.408;2022-11-12T03:52:57;96303.00;;;10.48;72.23
19761;BME280;10039;42.632;23.408;2022-11-12T03:55:25;96297.63;;;10.34;72.17
19761;BME280;10039;42.632;23.408;2022-11-12T03:57:52;96265.81;;;9.98;71.94
19761;BME280;10039;42.632;23.408;2022-11-12T04:00:20;96283.03;;;10.00;72.15
19761;BME280;10039;42.632;23.408;2022-11-12T04:02:46;96304.03;;;10.15;71.96
19761;BME280;10039;42.632;23.408;2022-11-12T04:05:12;96281.41;;;9.92;71.88
19761;BME280;10039;42.632;23.408;2022-11-12T04:10:42;96284.03;;;9.85;72.51
19761;BME280;10039;42.632;23.408;2022-11-12T04:13:08;96248.09;;;9.55;72.37
19761;BME280;10039;42.632;23.408;2022-11-12T04:18:39;96293.88;;;9.74;73.04
19761;BME280;10039;42.632;23.408;2022-11-12T04:21:27;96275.50;;;9.59;72.13
19761;BME280;10039;42.632;23.408;2022-11-12T04:24:13;96283.53;;;9.62;73.01
19761;BME280;10039;42.632;23.408;2022-11-12T04:26:59;96231.91;;;9.27;73.03
19761;BME280;10039;42.632;23.408;2022-11-12T04:29:24;96252.53;;;9.33;72.54
19761;BME280;10039;42.632;23.408;2022-11-12T04:32:08;96247.31;;;9.51;72.28
19761;BME280;10039;42.632;23.408;2022-11-12T04:34:34;96260.28;;;9.56;71.99
19761;BME280;10039;42.632;23.408;2022-11-12T04:37:02;96270.84;;;9.38;72.28
19761;BME280;10039;42.632;23.408;2022-11-12T04:39:27;96245.22;;;9.20;72.79
19761;BME280;10039;42.632;23.408;2022-11-12T04:41:53;96270.84;;;9.38;72.72
19761;BME280;10039;42.632;23.408;2022-11-12T04:44:37;96268.13;;;9.35;72.12
19761;BME280;10039;42.632;23.408;2022-11-12T04:47:21;96267.66;;;9.22;72.37
19761;BME280;10039;42.632;23.408;2022-11-12T04:49:50;96269.22;;;9.27;72.57
19761;BME280;10039;42.632;23.408;2022-11-12T04:52:15;96297.47;;;9.38;72.34
19761;BME280;10039;42.632;23.408;2022-11-12T04:54:41;96277.69;;;9.39;72.65
19761;BME280;10039;42.632;23.408;2022-11-12T04:57:09;96276.78;;;9.18;72.32
19761;BME280;10039;42.632;23.408;2022-11-12T04:59:35;96290.22;;;9.35;72.88
19761;BME280;10039;42.632;23.408;2022-11-12T05:02:00;96313.34;;;9.24;72.70
19761;BME280;10039;42.632;23.408;2022-11-12T05:04:26;96304.16;;;9.18;73.10
19761;BME280;10039;42.632;23.408;2022-11-12T05:06:55;96302.06;;;8.94;72.50
19761;BME280;10039;42.632;23.408;2022-11-12T05:09:23;96309.00;;;9.06;73.70
19761;BME280;10039;42.632;23.408;2022-11-12T05:11:49;96280.28;;;8.82;73.34
19761;BME280;10039;42.632;23.408;2022-11-12T05:14:15;96321.50;;;9.02;73.87
19761;BME280;10039;42.632;23.408;2022-11-12T05:16:41;96291.66;;;8.79;73.82
19761;BME280;10039;42.632;23.408;2022-11-12T05:19:06;96279.81;;;8.77;73.72
19761;BME280;10039;42.632;23.408;2022-11-12T05:21:32;96320.69;;;8.94;73.93
19761;BME280;10039;42.632;23.408;2022-11-12T05:24:16;96329.31;;;8.81;74.62
19761;BME280;10039;42.632;23.408;2022-11-12T05:26:47;96327.72;;;8.77;74.76
19761;BME280;10039;42.632;23.408;2022-11-12T05:29:13;96276.63;;;8.61;74.73
19761;BME280;10039;42.632;23.408;2022-11-12T05:31:41;96310.91;;;8.66;74.89
19761;BME280;10039;42.632;23.408;2022-11-12T05:34:11;96298.25;;;8.56;75.15
19761;BME280;10039;42.632;23.408;2022-11-12T05:36:37;96324.41;;;8.87;75.04
19761;BME280;10039;42.632;23.408;2022-11-12T05:39:03;96312.59;;;8.84;75.05
19761;BME280;10039;42.632;23.408;2022-11-12T05:41:29;96275.44;;;8.55;74.52
19761;BME280;10039;42.632;23.408;2022-11-12T05:43:57;96293.09;;;8.70;74.58
19761;BME280;10039;42.632;23.408;2022-11-12T05:46:23;96313.34;;;8.81;74.42
19761;BME280;10039;42.632;23.408;2022-11-12T05:48:49;96321.81;;;8.93;74.30
19761;BME280;10039;42.632;23.408;2022-11-12T05:51:14;96331.06;;;9.06;74.13
19761;BME280;10039;42.632;23.408;2022-11-12T05:53:41;96314.16;;;8.88;74.36
19761;BME280;10039;42.632;23.408;2022-11-12T05:56:07;96334.56;;;9.14;74.16
19761;BME280;10039;42.632;23.408;2022-11-12T05:58:33;96318.09;;;9.01;73.75
19761;BME280;10039;42.632;23.408;2022-11-12T06:01:00;96330.38;;;9.16;73.74
19761;BME280;10039;42.632;23.408;2022-11-12T06:03:25;96318.50;;;9.03;74.34
19761;BME280;10039;42.632;23.408;2022-11-12T06:05:51;96348.69;;;9.21;74.44
19761;BME280;10039;42.632;23.408;2022-11-12T06:08:17;96325.38;;;9.11;74.19
19761;BME280;10039;42.632;23.408;2022-11-12T06:10:53;96353.28;;;9.24;74.58
19761;BME280;10039;42.632;23.408;2022-11-12T06:13:20;96321.59;;;9.12;73.85
19761;BME280;10039;42.632;23.408;2022-11-12T06:15:46;96353.72;;;9.30;74.33
19761;BME280;10039;42.632;23.408;2022-11-12T06:18:12;96318.13;;;9.08;74.32
19761;BME280;10039;42.632;23.408;2022-11-12T06:20:38;96356.03;;;9.35;74.25
19761;BME280;10039;42.632;23.408;2022-11-12T06:23:04;96303.41;;;9.21;74.15
19761;BME280;10039;42.632;23.408;2022-11-12T06:25:29;96349.66;;;9.46;73.68
19761;BME280;10039;42.632;23.408;2022-11-12T06:27:55;96342.38;;;9.36;74.31
19761;BME280;10039;42.632;23.408;2022-11-12T06:30:21;96296.88;;;9.12;73.76
19761;BME280;10039;42.632;23.408;2022-11-12T06:32:48;96346.66;;;9.51;73.99
19761;BME280;10039;42.632;23.408;2022-11-12T06:35:17;96345.44;;;9.42;73.66
19761;BME280;10039;42.632;23.408;2022-11-12T06:37:47;96347.00;;;9.46;73.30
19761;BME280;10039;42.632;23.408;2022-11-12T06:40:15;96301.09;;;9.16;73.64
19761;BME280;10039;42.632;23.408;2022-11-12T06:42:41;96320.25;;;9.32;73.67
19761;BME280;10039;42.632;23.408;2022-11-12T06:45:07;96355.38;;;9.45;73.12
19761;BME280;10039;42.632;23.408;2022-11-12T06:47:33;96354.94;;;9.39;73.23
19761;BME280;10039;42.632;23.408;2022-11-12T06:49:58;96360.38;;;9.53;73.42
19761;BME280;10039;42.632;23.408;2022-11-12T06:52:24;96353.84;;;9.47;73.68
19761;BME280;10039;42.632;23.408;2022-11-12T06:54:50;96369.56;;;9.63;73.05
19761;BME280;10039;42.632;23.408;2022-11-12T06:57:15;96364.59;;;9.58;73.28
19761;BME280;10039;42.632;23.408;2022-11-12T06:59:41;96342.41;;;9.43;73.46
19761;BME280;10039;42.632;23.408;2022-11-12T07:02:09;96324.88;;;9.42;73.82
19761;BME280;10039;42.632;23.408;2022-11-12T07:04:35;96343.38;;;9.68;73.25
19761;BME280;10039;42.632;23.408;2022-11-12T07:07:00;96357.44;;;9.65;73.50
19761;BME280;10039;42.632;23.408;2022-11-12T07:09:26;96325.78;;;9.60;73.43
19761;BME280;10039;42.632;23.408;2022-11-12T07:11:52;96341.09;;;9.74;73.28
19761;BME280;10039;42.632;23.408;2022-11-12T07:14:17;96357.00;;;10.13;72.78
19761;BME280;10039;42.632;23.408;2022-11-12T07:16:43;96302.75;;;9.92;71.62
19761;BME280;10039;42.632;23.408;2022-11-12T07:19:09;96355.56;;;10.37;70.88
19761;BME280;10039;42.632;23.408;2022-11-12T07:21:34;96359.81;;;10.41;69.77
19761;BME280;10039;42.632;23.408;2022-11-12T07:24:00;96363.69;;;10.58;69.45
19761;BME280;10039;42.632;23.408;2022-11-12T07:26:25;96320.16;;;10.43;68.25
19761;BME280;10039;42.632;23.408;2022-11-12T07:28:54;96338.53;;;10.66;68.25
19761;BME280;10039;42.632;23.408;2022-11-12T07:31:22;96328.63;;;10.66;66.83
19761;BME280;10039;42.632;23.408;2022-11-12T07:33:49;96356.50;;;10.86;67.30
19761;BME280;10039;42.632;23.408;2022-11-12T07:36:17;96319.47;;;10.71;66.31
19761;BME280;10039;42.632;23.408;2022-11-12T07:38:43;96327.09;;;10.76;64.59
19761;BME280;10039;42.632;23.408;2022-11-12T07:41:14;96350.81;;;10.98;65.40
19761;BME280;10039;42.632;23.408;2022-11-12T07:43:41;96343.94;;;10.94;64.81
19761;BME280;10039;42.632;23.408;2022-11-12T07:46:10;96356.16;;;11.02;63.32
19761;BME280;10039;42.632;23.408;2022-11-12T07:48:37;96358.47;;;11.13;64.43
19761;BME280;10039;42.632;23.408;2022-11-12T07:51:15;96351.97;;;11.18;63.68
19761;BME280;10039;42.632;23.408;2022-11-12T07:53:41;96334.81;;;11.09;64.31
19761;BME280;10039;42.632;23.408;2022-11-12T07:56:10;96352.75;;;11.32;63.75
19761;BME280;10039;42.632;23.408;2022-11-12T07:58:36;96367.66;;;11.33;63.35
19761;BME280;10039;42.632;23.408;2022-11-12T08:03:37;96344.38;;;11.13;63.55
19761;BME280;10039;42.632;23.408;2022-11-12T08:06:02;96342.06;;;11.18;63.62
19761;BME280;10039;42.632;23.408;2022-11-12T08:08:28;96339.78;;;11.20;63.48
19761;BME280;10039;42.632;23.408;2022-11-12T08:10:55;96371.50;;;11.46;63.83
19761;BME280;10039;42.632;23.408;2022-11-12T08:13:21;96346.28;;;11.26;62.38
19761;BME280;10039;42.632;23.408;2022-11-12T08:15:47;96368.41;;;11.48;62.61
19761;BME280;10039;42.632;23.408;2022-11-12T08:18:12;96373.00;;;11.26;61.17
19761;BME280;10039;42.632;23.408;2022-11-12T08:20:38;96380.63;;;11.17;60.86
19761;BME280;10039;42.632;23.408;2022-11-12T08:23:04;96358.50;;;11.20;61.85
19761;BME280;10039;42.632;23.408;2022-11-12T08:25:29;96362.31;;;11.19;61.23
19761;BME280;10039;42.632;23.408;2022-11-12T08:27:56;96353.91;;;11.21;62.62
19761;BME280;10039;42.632;23.408;2022-11-12T08:30:22;96378.75;;;11.42;62.83
19761;BME280;10039;42.632;23.408;2022-11-12T08:33:03;96348.56;;;11.31;62.26
19761;BME280;10039;42.632;23.408;2022-11-12T08:35:36;96334.06;;;11.25;62.21
19761;BME280;10039;42.632;23.408;2022-11-12T08:38:09;96362.31;;;11.37;61.29
19761;BME280;10039;42.632;23.408;2022-11-12T08:40:44;96388.28;;;11.33;60.94
19761;BME280;10039;42.632;23.408;2022-11-12T08:43:12;96363.84;;;11.31;61.52
19761;BME280;10039;42.632;23.408;2022-11-12T08:45:38;96379.50;;;11.36;62.04
19761;BME280;10039;42.632;23.408;2022-11-12T08:48:09;96348.56;;;11.24;61.59
19761;BME280;10039;42.632;23.408;2022-11-12T08:50:43;96386.00;;;11.52;61.79
19761;BME280;10039;42.632;23.408;2022-11-12T08:53:12;96367.72;;;11.54;61.50
19761;BME280;10039;42.632;23.408;2022-11-12T08:55:38;96379.16;;;11.72;61.95
19761;BME280;10039;42.632;23.408;2022-11-12T08:58:04;96355.44;;;11.46;60.82
19761;BME280;10039;42.632;23.408;2022-11-12T09:00:39;96363.13;;;11.76;61.27
19761;BME280;10039;42.632;23.408;2022-11-12T09:03:07;96348.56;;;11.91;61.31
19761;BME280;10039;42.632;23.408;2022-11-12T09:05:37;96368.44;;;12.04;59.93
19761;BME280;10039;42.632;23.408;2022-11-12T09:08:10;96358.53;;;11.76;58.76
19761;BME280;10039;42.632;23.408;2022-11-12T09:10:37;96371.88;;;11.90;59.87
19761;BME280;10039;42.632;23.408;2022-11-12T09:13:03;96387.19;;;11.93;59.68
19761;BME280;10039;42.632;23.408;2022-11-12T09:15:28;96331.41;;;11.78;59.65
19761;BME280;10039;42.632;23.408;2022-11-12T09:17:59;96343.97;;;12.02;59.95
19761;BME280;10039;42.632;23.408;2022-11-12T09:20:26;96340.13;;;12.13;58.96
19761;BME280;10039;42.632;23.408;2022-11-12T09:22:53;96372.22;;;12.13;58.44
19761;BME280;10039;42.632;23.408;2022-11-12T09:25:19;96363.06;;;12.07;58.72
19761;BME280;10039;42.632;23.408;2022-11-12T09:27:44;96369.16;;;12.15;58.29
19761;BME280;10039;42.632;23.408;2022-11-12T09:30:13;96378.72;;;12.19;59.77
19761;BME280;10039;42.632;23.408;2022-11-12T09:32:38;96327.53;;;12.00;59.25
19761;BME280;10039;42.632;23.408;2022-11-12T09:35:05;96354.63;;;12.26;59.22
19761;BME280;10039;42.632;23.408;2022-11-12T09:37:30;96354.63;;;12.19;59.51
19761;BME280;10039;42.632;23.408;2022-11-12T09:39:56;96354.63;;;12.12;59.23
19761;BME280;10039;42.632;23.408;2022-11-12T09:42:22;96312.66;;;11.88;59.80
19761;BME280;10039;42.632;23.408;2022-11-12T09:45:02;96371.81;;;12.22;58.96
19761;BME280;10039;42.632;23.408;2022-11-12T09:47:41;96366.09;;;12.20;60.12
19761;BME280;10039;42.632;23.408;2022-11-12T09:50:28;96366.84;;;12.24;58.43
19761;BME280;10039;42.632;23.408;2022-11-12T09:53:15;96355.00;;;12.18;57.79
19761;BME280;10039;42.632;23.408;2022-11-12T09:55:45;96363.75;;;12.32;58.61
19761;BME280;10039;42.632;23.408;2022-11-12T09:58:13;96354.19;;;12.31;57.80
19761;BME280;10039;42.632;23.408;2022-11-12T10:00:44;96341.22;;;12.26;56.90
19761;BME280;10039;42.632;23.408;2022-11-12T10:03:26;96372.94;;;12.41;56.65
19761;BME280;10039;42.632;23.408;2022-11-12T10:06:11;96323.72;;;11.94;56.21
19761;BME280;10039;42.632;23.408;2022-11-12T10:08:53;96327.94;;;11.84;57.06
19761;BME280;10039;42.632;23.408;2022-11-12T10:15:09;96346.63;;;12.02;57.40
19761;BME280;10039;42.632;23.408;2022-11-12T10:18:07;96324.06;;;12.06;58.44
19761;BME280;10039;42.632;23.408;2022-11-12T10:23:18;96337.81;;;12.08;58.07
19761;BME280;10039;42.632;23.408;2022-11-12T10:25:49;96370.69;;;12.26;57.45
19761;BME280;10039;42.632;23.408;2022-11-12T10:28:34;96340.13;;;12.13;57.26
19761;BME280;10039;42.632;23.408;2022-11-12T10:31:13;96352.72;;;12.09;57.16
19761;BME280;10039;42.632;23.408;2022-11-12T10:33:38;96341.25;;;12.12;58.39
19761;BME280;10039;42.632;23.408;2022-11-12T10:38:57;96334.34;;;12.25;58.99
19761;BME280;10039;42.632;23.408;2022-11-12T10:41:30;96373.69;;;12.42;57.55
19761;BME280;10039;42.632;23.408;2022-11-12T10:44:04;96346.22;;;12.14;58.29
19761;BME280;10039;42.632;23.408;2022-11-12T10:46:35;96377.91;;;12.36;58.98
19761;BME280;10039;42.632;23.408;2022-11-12T10:49:21;96377.50;;;12.41;59.13
19761;BME280;10039;42.632;23.408;2022-11-12T10:51:55;96368.72;;;12.40;58.66
19761;BME280;10039;42.632;23.408;2022-11-12T10:54:35;96330.91;;;12.18;59.19
19761;BME280;10039;42.632;23.408;2022-11-12T10:57:21;96370.59;;;12.47;58.92
19761;BME280;10039;42.632;23.408;2022-11-12T11:00:05;96361.78;;;12.50;59.79
19761;BME280;10039;42.632;23.408;2022-11-12T11:02:49;96346.94;;;12.28;59.02
19761;BME280;10039;42.632;23.408;2022-11-12T11:05:52;96374.81;;;12.48;59.07
19761;BME280;10039;42.632;23.408;2022-11-12T11:08:33;96368.34;;;12.31;58.55
19761;BME280;10039;42.632;23.408;2022-11-12T11:13:43;96361.84;;;12.39;58.55
19761;BME280;10039;42.632;23.408;2022-11-12T11:19:02;96362.66;;;12.12;59.88
19761;BME280;10039;42.632;23.408;2022-11-12T11:35:37;96336.72;;;11.85;59.63
19761;BME280;10039;42.632;23.408;2022-11-12T11:46:04;96351.47;;;12.45;59.71
19761;BME280;10039;42.632;23.408;2022-11-12T11:48:48;96343.88;;;12.33;58.63
19761;BME280;10039;42.632;23.408;2022-11-12T11:57:15;96346.22;;;12.24;58.26
19761;BME280;10039;42.632;23.408;2022-11-12T12:00:14;96340.41;;;12.39;58.63
19761;BME280;10039;42.632;23.408;2022-11-12T12:09:09;96335.00;;;12.57;58.22
19761;BME280;10039;42.632;23.408;2022-11-12T12:11:49;96342.19;;;12.70;58.30
19761;BME280;10039;42.632;23.408;2022-11-12T12:17:35;96329.13;;;12.83;58.39
19761;BME280;10039;42.632;23.408;2022-11-12T12:20:20;96319.19;;;12.80;57.63
19761;BME280;10039;42.632;23.408;2022-11-12T12:22:59;96297.78;;;12.73;57.78
19761;BME280;10039;42.632;23.408;2022-11-12T12:25:32;96299.38;;;12.60;56.20
19761;BME280;10039;42.632;23.408;2022-11-12T12:28:06;96295.16;;;12.59;56.74
19761;BME280;10039;42.632;23.408;2022-11-12T12:30:46;96300.25;;;12.36;56.85
19761;BME280;10039;42.632;23.408;2022-11-12T12:33:38;96335.69;;;12.68;57.87
19761;BME280;10039;42.632;23.408;2022-11-12T12:37:00;96332.19;;;12.78;57.89
19761;BME280;10039;42.632;23.408;2022-11-12T12:39:29;96334.50;;;12.76;57.24
19761;BME280;10039;42.632;23.408;2022-11-12T12:42:04;96322.28;;;12.68;58.33
19761;BME280;10039;42.632;23.408;2022-11-12T12:44:41;96327.38;;;12.45;58.73
19761;BME280;10039;42.632;23.408;2022-11-12T12:47:38;96307.91;;;12.37;60.13
19761;BME280;10039;42.632;23.408;2022-11-12T12:50:17;96323.28;;;12.23;60.49
19761;BME280;10039;42.632;23.408;2022-11-12T12:55:48;96356.13;;;12.27;61.99
19761;BME280;10039;42.632;23.408;2022-11-12T12:58:23;96297.38;;;11.85;62.72
19761;BME280;10039;42.632;23.408;2022-11-12T13:01:01;96318.41;;;11.83;63.07
19761;BME280;10039;42.632;23.408;2022-11-12T13:03:57;96311.53;;;11.82;62.71
19761;BME280;10039;42.632;23.408;2022-11-12T13:17:01;96373.81;;;11.58;65.23
19761;BME280;10039;42.632;23.408;2022-11-12T13:19:30;96346.28;;;11.37;66.38
19761;BME280;10039;42.632;23.408;2022-11-12T13:30:07;96337.16;;;11.55;66.63
19761;BME280;10039;42.632;23.408;2022-11-12T13:45:32;96340.16;;;11.36;68.02
19761;BME280;10039;42.632;23.408;2022-11-12T13:48:00;96360.06;;;11.56;67.75
19761;BME280;10039;42.632;23.408;2022-11-12T13:50:39;96345.50;;;11.36;67.79
19761;BME280;10039;42.632;23.408;2022-11-12T13:53:07;96368.81;;;11.53;67.85
19761;BME280;10039;42.632;23.408;2022-11-12T13:55:34;96371.13;;;11.51;67.58
19761;BME280;10039;42.632;23.408;2022-11-12T13:58:01;96362.75;;;11.56;67.82
19761;BME280;10039;42.632;23.408;2022-11-12T14:00:30;96344.38;;;11.44;68.14
19761;BME280;10039;42.632;23.408;2022-11-12T14:03:00;96362.31;;;11.51;68.71
19761;BME280;10039;42.632;23.408;2022-11-12T14:05:29;96347.44;;;11.46;68.48
19761;BME280;10039;42.632;23.408;2022-11-12T14:11:03;96369.22;;;11.59;67.81
19761;BME280;10039;42.632;23.408;2022-11-12T14:16:30;96366.16;;;11.67;68.25
19761;BME280;10039;42.632;23.408;2022-11-12T14:22:15;96341.69;;;11.44;68.16
19761;BME280;10039;42.632;23.408;2022-11-12T14:24:41;96363.13;;;11.58;68.66
19761;BME280;10039;42.632;23.408;2022-11-12T14:27:40;96348.22;;;11.61;68.28
19761;BME280;10039;42.632;23.408;2022-11-12T14:30:23;96350.53;;;11.62;67.78
19761;BME280;10039;42.632;23.408;2022-11-12T14:32:51;96342.06;;;11.39;68.02
19761;BME280;10039;42.632;23.408;2022-11-12T14:40:52;96344.75;;;11.46;67.82
19761;BME280;10039;42.632;23.408;2022-11-12T14:43:42;96361.56;;;11.64;67.76
19761;BME280;10039;42.632;23.408;2022-11-12T14:46:32;96318.03;;;11.36;67.41
19761;BME280;10039;42.632;23.408;2022-11-12T14:51:29;96332.53;;;11.42;66.91
19761;BME280;10039;42.632;23.408;2022-11-12T14:54:02;96327.56;;;11.40;67.03
19761;BME280;10039;42.632;23.408;2022-11-12T14:56:43;96350.09;;;11.46;67.49
19761;BME280;10039;42.632;23.408;2022-11-12T14:59:11;96349.72;;;11.44;66.81
19761;BME280;10039;42.632;23.408;2022-11-12T15:01:38;96365.38;;;11.53;66.86
19761;BME280;10039;42.632;23.408;2022-11-12T15:06:35;96363.09;;;11.44;67.17